Time;durP1;ratioP1;P1;durP2;ratioP2;P2;SDS_P1;SDS_P2;PMS_P1;PMS_P2;Temp;Humidity;BMP_temperature;BMP_pressure;BME280_temperature;BME280_humidity;BME280_pressure;Samples;Min_cycle;Max_cycle;Signal;HPM_P1;HPM_P2
2023/04/25 00:02:19;;;;;;;13.15;4.65;;;9.00;99.90;;;;;;5113733;28;20243;-58
2023/04/25 00:04:45;;;;;;;12.45;4.72;;;9.00;99.90;;;;;;5113912;28;20179;-58
2023/04/25 00:07:11;;;;;;;12.52;5.18;;;9.00;99.90;;;;;;5113820;28;20173;-58
2023/04/25 00:09:37;;;;;;;13.02;5.30;;;9.00;99.90;;;;;;5114002;28;20318;-58
2023/04/25 00:12:02;;;;;;;12.70;4.93;;;9.00;99.90;;;;;;5113986;28;20256;-58
2023/04/25 00:14:29;;;;;;;14.45;5.10;;;9.00;99.90;;;;;;5113753;28;20173;-58
2023/04/25 00:16:55;;;;;;;14.60;4.82;;;9.00;99.90;;;;;;5113741;28;20628;-58
2023/04/25 00:19:20;;;;;;;9.18;4.68;;;9.00;99.90;;;;;;5113715;28;20177;-58
2023/04/25 00:21:46;;;;;;;12.38;5.10;;;9.00;99.90;;;;;;5095333;28;20578;-58
2023/04/25 00:24:12;;;;;;;13.40;5.10;;;9.00;99.90;;;;;;5113599;28;20464;-58
2023/04/25 00:26:38;;;;;;;10.35;4.63;;;9.00;99.90;;;;;;5113804;28;20173;-58
2023/04/25 00:29:04;;;;;;;11.95;5.25;;;9.00;99.90;;;;;;5113777;28;20736;-58
2023/04/25 00:31:30;;;;;;;11.00;4.82;;;9.00;99.90;;;;;;5113479;28;20636;-58
2023/04/25 00:33:55;;;;;;;12.73;4.80;;;9.00;99.90;;;;;;5113463;28;20662;-58
2023/04/25 00:36:21;;;;;;;14.63;5.25;;;9.00;99.90;;;;;;5113419;28;20209;-58
2023/04/25 00:38:47;;;;;;;12.10;4.88;;;9.00;99.90;;;;;;5113762;28;20197;-58
2023/04/25 00:41:13;;;;;;;14.52;4.95;;;9.00;99.90;;;;;;5113376;28;20169;-58
2023/04/25 00:43:40;;;;;;;12.35;4.90;;;9.00;99.90;;;;;;5113878;28;20218;-58
2023/04/25 00:46:06;;;;;;;11.80;5.00;;;9.00;99.90;;;;;;5113389;28;20169;-58
2023/04/25 00:48:31;;;;;;;12.35;4.80;;;8.90;99.90;;;;;;5113404;28;20228;-58
2023/04/25 00:50:59;;;;;;;11.85;4.70;;;8.90;99.90;;;;;;5113303;28;20177;-58
2023/04/25 00:53:26;;;;;;;13.35;4.90;;;8.90;99.90;;;;;;5113281;28;20177;-58
2023/04/25 00:55:53;;;;;;;14.55;5.40;;;8.80;99.90;;;;;;5113580;28;20177;-58
2023/04/25 00:58:20;;;;;;;10.27;4.88;;;8.80;99.90;;;;;;5113421;28;20178;-58
2023/04/25 01:00:47;;;;;;;12.95;4.57;;;8.80;99.90;;;;;;5113343;28;20170;-58
2023/04/25 01:03:19;;;;;;;14.40;5.25;;;8.80;99.90;;;;;;5113141;28;20254;-58
2023/04/25 01:05:46;;;;;;;14.60;5.25;;;8.80;99.90;;;;;;5113062;28;20260;-58
2023/04/25 01:08:12;;;;;;;13.88;4.95;;;8.80;99.90;;;;;;5113360;28;20603;-58
2023/04/25 01:10:38;;;;;;;14.10;5.10;;;8.70;99.90;;;;;;5113366;28;20257;-58
2023/04/25 01:13:03;;;;;;;13.18;4.95;;;8.80;99.90;;;;;;5113316;28;20248;-58
2023/04/25 01:15:29;;;;;;;14.57;4.97;;;8.80;99.90;;;;;;5113105;28;20214;-58
2023/04/25 01:17:55;;;;;;;14.10;5.10;;;8.70;99.90;;;;;;5113192;28;20170;-58
2023/04/25 01:20:22;;;;;;;15.38;4.78;;;8.70;99.90;;;;;;5113050;28;20182;-58
2023/04/25 01:22:49;;;;;;;14.10;5.10;;;8.70;99.90;;;;;;5113121;28;20293;-58
2023/04/25 01:25:15;;;;;;;12.40;4.57;;;8.70;99.90;;;;;;5113056;28;20179;-58
2023/04/25 01:27:41;;;;;;;12.57;4.47;;;8.70;99.90;;;;;;5113053;28;20635;-58
2023/04/25 01:30:07;;;;;;;13.43;4.90;;;8.70;99.90;;;;;;5113001;28;20227;-58
2023/04/25 01:32:39;;;;;;;13.40;5.07;;;8.70;99.90;;;;;;5112979;28;20173;-58
2023/04/25 01:35:10;;;;;;;11.73;5.00;;;8.70;99.90;;;;;;5113183;28;20183;-58
2023/04/25 01:37:39;;;;;;;11.00;4.75;;;8.70;99.90;;;;;;5113066;28;20603;-58
2023/04/25 01:40:06;;;;;;;11.13;4.65;;;8.70;99.90;;;;;;5112993;28;20226;-58
2023/04/25 01:42:34;;;;;;;11.48;4.90;;;8.70;99.90;;;;;;5114088;28;20205;-58
2023/04/25 01:44:59;;;;;;;13.95;5.20;;;8.70;99.90;;;;;;5116593;28;20264;-59
2023/04/25 01:47:25;;;;;;;9.95;4.60;;;8.70;99.90;;;;;;5116330;28;20261;-58
2023/04/25 01:49:51;;;;;;;10.63;4.85;;;8.70;99.90;;;;;;5116787;28;20297;-59
2023/04/25 01:52:16;;;;;;;14.05;4.47;;;8.70;99.90;;;;;;5116553;28;20184;-58
2023/04/25 01:54:44;;;;;;;10.45;4.72;;;8.70;99.90;;;;;;5116445;28;20169;-58
2023/04/25 01:57:13;;;;;;;10.77;5.38;;;8.60;99.90;;;;;;5116389;28;20205;-58
2023/04/25 01:59:40;;;;;;;15.60;5.30;;;8.60;99.90;;;;;;5116348;28;20170;-58
2023/04/25 02:02:06;;;;;;;13.75;5.03;;;8.60;99.90;;;;;;5116108;28;20331;-58
2023/04/25 02:04:32;;;;;;;12.32;4.80;;;8.60;99.90;;;;;;5116318;28;20263;-58
2023/04/25 02:06:58;;;;;;;12.70;5.00;;;8.50;99.90;;;;;;5116144;28;20181;-58
2023/04/25 02:09:24;;;;;;;11.07;4.63;;;8.50;99.90;;;;;;5116210;28;20179;-58
2023/04/25 02:11:50;;;;;;;14.95;5.10;;;8.60;99.90;;;;;;5116221;28;20173;-58
2023/04/25 02:14:15;;;;;;;16.02;4.90;;;8.60;99.90;;;;;;5115965;28;20201;-58
2023/04/25 02:16:43;;;;;;;10.60;4.65;;;8.60;99.90;;;;;;5115900;28;20659;-58
2023/04/25 02:19:09;;;;;;;11.68;4.25;;;8.50;99.90;;;;;;5116017;28;20262;-58
2023/04/25 02:21:35;;;;;;;16.15;5.22;;;8.50;99.90;;;;;;5115920;28;20231;-58
2023/04/25 02:24:01;;;;;;;8.75;3.83;;;8.40;99.90;;;;;;5115920;28;20205;-58
2023/04/25 02:26:27;;;;;;;15.07;5.03;;;8.40;99.90;;;;;;5097594;28;20635;-58
2023/04/25 02:28:52;;;;;;;15.48;4.82;;;8.40;99.90;;;;;;5115700;28;20169;-58
2023/04/25 02:31:18;;;;;;;15.35;4.97;;;8.40;99.90;;;;;;5115648;28;20215;-58
2023/04/25 02:33:44;;;;;;;12.55;4.43;;;8.40;99.90;;;;;;5115803;28;20264;-58
2023/04/25 02:36:10;;;;;;;14.85;4.85;;;8.30;99.90;;;;;;5115780;28;20165;-58
2023/04/25 02:38:35;;;;;;;13.82;4.63;;;8.30;99.90;;;;;;5115661;28;20174;-58
2023/04/25 02:41:01;;;;;;;10.40;4.68;;;8.30;99.90;;;;;;5115563;28;20528;-58
2023/04/25 02:43:26;;;;;;;13.02;4.85;;;8.40;99.90;;;;;;5115419;28;20204;-58
2023/04/25 02:45:52;;;;;;;16.15;4.47;;;8.30;99.90;;;;;;5115420;28;20576;-57
2023/04/25 02:48:18;;;;;;;17.10;5.47;;;8.30;99.90;;;;;;5115315;28;20583;-57
2023/04/25 02:50:44;;;;;;;13.10;5.47;;;8.30;99.90;;;;;;5115500;28;20224;-58
2023/04/25 02:53:10;;;;;;;17.75;5.28;;;8.40;99.90;;;;;;5114844;28;20169;-58
2023/04/25 02:55:35;;;;;;;16.58;5.47;;;8.40;99.90;;;;;;5114628;28;20173;-58
2023/04/25 02:58:01;;;;;;;10.73;4.65;;;8.40;99.90;;;;;;5115156;28;20175;-57
2023/04/25 03:00:27;;;;;;;11.32;4.35;;;8.40;99.90;;;;;;5115044;28;20173;-57
2023/04/25 03:02:52;;;;;;;9.73;4.10;;;8.40;99.90;;;;;;5114897;28;20298;-57
2023/04/25 03:05:19;;;;;;;9.38;3.72;;;8.30;99.90;;;;;;5115118;28;20169;-57
2023/04/25 03:07:45;;;;;;;6.75;3.30;;;8.40;99.90;;;;;;5115038;28;20169;-58
2023/04/25 03:10:11;;;;;;;9.40;3.50;;;8.40;99.90;;;;;;5096708;28;20169;-57
2023/04/25 03:12:37;;;;;;;8.02;3.40;;;8.30;99.90;;;;;;5114918;28;20169;-57
2023/04/25 03:15:03;;;;;;;9.27;3.15;;;8.30;99.90;;;;;;5114793;28;20223;-58
2023/04/25 03:17:29;;;;;;;6.82;2.67;;;8.30;99.90;;;;;;5115125;28;20169;-57
2023/04/25 03:19:55;;;;;;;7.80;2.70;;;8.20;99.90;;;;;;5114894;28;20176;-58
2023/04/25 03:22:21;;;;;;;5.65;2.30;;;8.20;99.90;;;;;;5114592;28;20201;-58
2023/04/25 03:24:47;;;;;;;7.30;2.72;;;8.20;99.90;;;;;;5114658;28;20256;-58
2023/04/25 03:27:13;;;;;;;7.72;2.70;;;8.20;99.90;;;;;;5114647;28;20260;-57
2023/04/25 03:29:40;;;;;;;7.32;2.63;;;8.20;99.90;;;;;;5114505;28;20169;-57
2023/04/25 03:32:09;;;;;;;8.10;3.30;;;8.20;99.90;;;;;;5114645;28;20180;-57
2023/04/25 03:34:35;;;;;;;4.57;2.22;;;8.20;99.90;;;;;;5114555;28;20214;-57
2023/04/25 03:37:00;;;;;;;5.22;2.50;;;8.10;99.90;;;;;;5114452;28;20173;-57
2023/04/25 03:39:26;;;;;;;6.90;2.47;;;8.10;99.90;;;;;;5114421;28;20309;-58
2023/04/25 03:41:52;;;;;;;5.50;2.40;;;8.10;99.90;;;;;;5114245;28;20197;-57
2023/04/25 03:44:17;;;;;;;5.10;2.10;;;8.00;99.90;;;;;;5114234;28;20188;-57
2023/04/25 03:46:43;;;;;;;2.10;1.52;;;7.70;99.90;;;;;;5114135;28;20173;-57
2023/04/25 03:49:09;;;;;;;5.40;1.55;;;7.70;99.90;;;;;;5114036;28;20228;-57
2023/04/25 03:51:34;;;;;;;4.55;2.03;;;7.60;99.90;;;;;;5095958;28;20180;-57
2023/04/25 03:54:00;;;;;;;4.80;1.75;;;7.60;99.90;;;;;;5114000;28;20177;-58
2023/04/25 03:56:26;;;;;;;4.28;1.77;;;7.60;99.90;;;;;;5114000;28;20177;-57
2023/04/25 03:58:52;;;;;;;4.03;1.88;;;7.50;99.90;;;;;;5114001;28;20170;-57
2023/04/25 04:01:17;;;;;;;6.13;2.38;;;7.50;99.90;;;;;;5114111;28;20181;-57
2023/04/25 04:03:43;;;;;;;4.75;2.28;;;7.50;99.90;;;;;;5114084;28;20214;-57
2023/04/25 04:06:10;;;;;;;4.18;1.90;;;7.50;99.90;;;;;;5113527;28;20532;-57
2023/04/25 04:08:36;;;;;;;4.07;2.00;;;7.50;99.90;;;;;;5113937;28;20176;-57
2023/04/25 04:11:01;;;;;;;4.57;1.98;;;7.40;99.90;;;;;;5113900;28;20691;-57
2023/04/25 04:13:28;;;;;;;4.75;1.95;;;7.40;99.90;;;;;;5113691;28;20553;-57
2023/04/25 04:15:57;;;;;;;5.55;2.00;;;7.40;99.90;;;;;;5114250;28;20213;-57
2023/04/25 04:18:23;;;;;;;4.10;1.65;;;7.50;99.90;;;;;;5113783;28;20188;-57
2023/04/25 04:20:49;;;;;;;4.13;1.80;;;7.50;99.90;;;;;;5113694;28;20178;-57
2023/04/25 04:23:15;;;;;;;3.80;1.70;;;7.50;99.90;;;;;;5113710;28;20295;-57
2023/04/25 04:25:41;;;;;;;3.42;1.90;;;7.60;99.90;;;;;;5113675;28;20197;-57
2023/04/25 04:28:07;;;;;;;4.55;1.73;;;7.60;99.90;;;;;;5113556;28;20169;-57
2023/04/25 04:30:36;;;;;;;3.50;1.65;;;7.60;99.90;;;;;;5113526;28;20676;-57
2023/04/25 04:33:02;;;;;;;4.47;1.67;;;7.60;99.90;;;;;;5113432;28;20635;-58
2023/04/25 04:35:27;;;;;;;3.10;1.90;;;7.70;99.90;;;;;;5095128;28;20191;-58
2023/04/25 04:37:54;;;;;;;4.93;2.47;;;7.70;99.90;;;;;;5112462;28;20190;-58
2023/04/25 04:40:20;;;;;;;3.30;2.08;;;7.70;99.90;;;;;;5113891;28;20294;-58
2023/04/25 04:42:46;;;;;;;5.13;2.63;;;7.80;99.90;;;;;;5113272;28;20303;-58
2023/04/25 04:45:12;;;;;;;4.47;2.10;;;7.80;99.90;;;;;;5113077;28;20170;-58
2023/04/25 04:47:39;;;;;;;4.10;2.03;;;7.80;99.90;;;;;;5110261;28;20272;-58
2023/04/25 04:50:08;;;;;;;5.47;2.15;;;7.70;99.90;;;;;;5110376;28;20555;-58
2023/04/25 04:52:35;;;;;;;4.85;2.25;;;7.70;99.90;;;;;;5110769;28;20191;-58
2023/04/25 04:55:01;;;;;;;3.85;2.13;;;7.80;99.90;;;;;;5111114;28;20204;-58
2023/04/25 04:57:28;;;;;;;2.70;1.30;;;7.70;99.90;;;;;;5112677;28;20297;-59
2023/04/25 04:59:54;;;;;;;3.60;2.33;;;7.70;99.90;;;;;;5113429;28;20185;-58
2023/04/25 05:02:20;;;;;;;5.25;2.33;;;7.80;99.90;;;;;;5113038;28;20205;-59
2023/04/25 05:04:46;;;;;;;6.75;2.67;;;7.80;99.90;;;;;;5112426;28;20173;-59
2023/04/25 05:07:12;;;;;;;4.38;2.13;;;7.80;99.90;;;;;;5113359;28;20196;-58
2023/04/25 05:09:38;;;;;;;4.68;2.08;;;7.80;99.90;;;;;;5113120;28;20173;-59
2023/04/25 05:12:04;;;;;;;4.65;2.30;;;7.80;99.90;;;;;;5113009;28;20679;-59
2023/04/25 05:14:30;;;;;;;6.22;1.92;;;7.80;99.90;;;;;;5095200;28;20173;-59
2023/04/25 05:16:56;;;;;;;3.90;1.88;;;7.90;99.90;;;;;;5113740;28;20257;-58
2023/04/25 05:19:21;;;;;;;3.83;2.15;;;7.80;99.90;;;;;;5116625;28;20180;-58
2023/04/25 05:21:47;;;;;;;4.63;2.47;;;7.80;99.90;;;;;;5115186;28;20205;-58
2023/04/25 05:24:13;;;;;;;4.15;2.03;;;7.90;99.90;;;;;;5115137;28;20177;-58
2023/04/25 05:26:38;;;;;;;4.20;2.20;;;7.90;99.90;;;;;;5116260;28;20211;-58
2023/04/25 05:29:05;;;;;;;4.88;2.15;;;7.80;99.90;;;;;;5116822;28;20166;-58
2023/04/25 05:31:31;;;;;;;6.60;2.80;;;7.80;99.90;;;;;;5116818;28;20219;-58
2023/04/25 05:33:57;;;;;;;6.32;2.75;;;7.70;99.90;;;;;;5116431;28;20667;-57
2023/04/25 05:36:23;;;;;;;5.35;2.00;;;7.70;99.90;;;;;;5115839;28;20180;-57
2023/04/25 05:38:48;;;;;;;7.03;2.50;;;7.70;99.90;;;;;;5116001;28;20178;-57
2023/04/25 05:41:14;;;;;;;4.32;2.00;;;7.70;99.90;;;;;;5116619;28;20173;-57
2023/04/25 05:43:44;;;;;;;3.40;1.88;;;7.70;99.90;;;;;;5116329;28;20288;-57
2023/04/25 05:46:10;;;;;;;4.82;1.95;;;7.70;99.90;;;;;;5116293;28;20177;-57
2023/04/25 05:48:37;;;;;;;4.43;2.20;;;7.80;99.90;;;;;;5116398;28;20217;-57
2023/04/25 05:51:03;;;;;;;3.38;2.05;;;7.90;99.90;;;;;;5116208;28;20174;-57
2023/04/25 05:53:28;;;;;;;5.35;1.85;;;7.90;99.90;;;;;;5115312;28;20544;-57
2023/04/25 05:55:55;;;;;;;5.70;2.00;;;8.00;99.90;;;;;;5113226;28;20204;-57
2023/04/25 05:58:21;;;;;;;4.75;2.08;;;8.00;99.90;;;;;;5096949;28;20181;-57
2023/04/25 06:00:46;;;;;;;4.60;2.17;;;8.00;99.90;;;;;;5108147;28;20177;-57
2023/04/25 06:03:14;;;;;;;5.05;2.20;;;8.00;99.90;;;;;;5115994;28;20667;-57
2023/04/25 06:05:42;;;;;;;3.95;2.10;;;8.00;99.90;;;;;;5115365;28;20187;-59
2023/04/25 06:08:08;;;;;;;4.47;2.22;;;8.00;99.90;;;;;;5115864;28;20170;-59
2023/04/25 06:10:34;;;;;;;4.32;2.58;;;8.10;99.90;;;;;;5115950;28;20184;-57
2023/04/25 06:13:00;;;;;;;4.70;1.88;;;8.10;99.90;;;;;;5115385;28;20172;-57
2023/04/25 06:15:26;;;;;;;4.93;1.95;;;8.10;99.90;;;;;;5114555;28;20260;-58
2023/04/25 06:17:53;;;;;;;3.45;2.05;;;8.10;99.90;;;;;;5097753;28;20173;-57
2023/04/25 06:20:22;;;;;;;4.88;2.10;;;8.10;99.90;;;;;;5114605;28;20537;-58
2023/04/25 06:22:49;;;;;;;5.03;1.98;;;8.10;99.90;;;;;;5114052;28;20201;-57
2023/04/25 06:25:15;;;;;;;4.13;1.90;;;8.20;99.90;;;;;;5115969;28;20550;-57
2023/04/25 06:27:41;;;;;;;3.10;1.80;;;8.20;99.90;;;;;;5097595;28;20535;-59
2023/04/25 06:30:07;;;;;;;5.13;1.85;;;8.30;99.90;;;;;;5115801;28;20173;-60
2023/04/25 06:32:34;;;;;;;5.38;2.03;;;8.40;99.90;;;;;;5115508;28;20250;-59
2023/04/25 06:35:00;;;;;;;3.00;1.77;;;8.50;99.90;;;;;;5115226;28;20186;-59
2023/04/25 06:37:26;;;;;;;5.60;1.83;;;8.60;99.90;;;;;;5114085;27;20181;-57
2023/04/25 06:39:51;;;;;;;6.57;2.33;;;8.70;99.90;;;;;;5115058;28;20173;-59
2023/04/25 06:42:17;;;;;;;3.60;1.60;;;8.70;99.90;;;;;;5115520;28;20228;-59
2023/04/25 06:44:43;;;;;;;5.60;1.80;;;8.70;99.90;;;;;;5115606;28;20187;-59
2023/04/25 06:47:09;;;;;;;3.28;1.50;;;8.60;99.90;;;;;;5115440;28;20180;-58
2023/04/25 06:49:35;;;;;;;4.57;1.88;;;8.50;99.90;;;;;;5115626;28;20227;-58
2023/04/25 06:52:00;;;;;;;5.45;1.80;;;8.50;99.90;;;;;;5115146;28;20261;-58
2023/04/25 06:54:29;;;;;;;2.85;1.40;;;8.50;99.90;;;;;;5115418;28;20184;-59
2023/04/25 06:56:55;;;;;;;4.05;1.80;;;8.50;99.90;;;;;;5115332;28;20167;-58
2023/04/25 06:59:21;;;;;;;4.45;1.60;;;8.50;99.90;;;;;;5115288;28;20174;-59
2023/04/25 07:01:46;;;;;;;3.08;1.50;;;8.70;99.90;;;;;;5114850;28;20213;-58
2023/04/25 07:04:12;;;;;;;3.85;1.48;;;8.90;99.90;;;;;;5114852;28;20669;-58
2023/04/25 07:06:42;;;;;;;5.72;1.80;;;8.70;99.90;;;;;;5114668;28;20200;-59
2023/04/25 07:09:09;;;;;;;2.90;1.50;;;8.70;99.90;;;;;;5115015;28;20175;-58
2023/04/25 07:11:35;;;;;;;4.15;1.60;;;8.70;99.90;;;;;;5114983;28;20269;-58
2023/04/25 07:14:01;;;;;;;4.80;1.50;;;8.70;99.90;;;;;;5115003;28;20169;-59
2023/04/25 07:16:27;;;;;;;2.88;1.42;;;8.70;99.90;;;;;;5114902;28;20169;-58
2023/04/25 07:18:53;;;;;;;2.10;1.30;;;8.70;99.90;;;;;;5114784;28;20289;-58
2023/04/25 07:21:19;;;;;;;2.78;1.40;;;8.60;99.90;;;;;;5114949;28;20538;-58
2023/04/25 07:23:44;;;;;;;4.22;1.48;;;8.50;99.90;;;;;;5114765;28;20235;-58
2023/04/25 07:26:10;;;;;;;3.45;1.42;;;8.40;99.90;;;;;;5114710;28;20177;-59
2023/04/25 07:28:36;;;;;;;5.32;2.15;;;8.50;99.90;;;;;;5114604;28;20259;-58
2023/04/25 07:31:02;;;;;;;4.40;1.80;;;8.70;99.90;;;;;;5114507;28;20226;-58
2023/04/25 07:33:28;;;;;;;4.95;1.48;;;9.00;99.90;;;;;;5114257;28;20189;-59
2023/04/25 07:35:55;;;;;;;2.75;1.30;;;9.30;99.90;;;;;;5114654;28;20172;-59
2023/04/25 07:38:21;;;;;;;3.40;1.40;;;9.50;99.90;;;;;;5114682;28;20177;-59
2023/04/25 07:40:48;;;;;;;3.38;1.25;;;9.70;99.90;;;;;;5113837;28;20176;-58
2023/04/25 07:43:16;;;;;;;2.13;1.23;;;9.90;99.90;;;;;;5114308;28;20219;-58
2023/04/25 07:45:42;;;;;;;2.85;1.35;;;9.90;99.90;;;;;;5114171;28;20206;-58
2023/04/25 07:48:08;;;;;;;3.78;1.25;;;10.00;99.90;;;;;;5113977;28;20194;-59
2023/04/25 07:50:34;;;;;;;2.05;1.38;;;9.70;99.90;;;;;;5114354;28;20181;-58
2023/04/25 07:52:59;;;;;;;3.95;1.15;;;9.70;99.90;;;;;;5114293;28;20177;-59
2023/04/25 07:55:25;;;;;;;3.03;1.00;;;9.70;99.90;;;;;;5114058;28;20170;-59
2023/04/25 07:57:51;;;;;;;2.05;1.00;;;10.00;99.90;;;;;;5114149;28;20516;-61
2023/04/25 08:00:17;;;;;;;2.30;1.08;;;10.30;99.90;;;;;;5114003;28;20178;-63
2023/04/25 08:02:43;;;;;;;1.35;1.00;;;10.20;99.90;;;;;;5113800;28;20233;-59
2023/04/25 08:05:11;;;;;;;3.97;1.08;;;10.20;99.90;;;;;;5114080;28;20180;-59
2023/04/25 08:07:38;;;;;;;2.50;0.90;;;10.10;99.90;;;;;;5114005;28;20184;-58
2023/04/25 08:10:05;;;;;;;1.63;0.90;;;9.90;99.90;;;;;;5113887;28;20173;-58
2023/04/25 08:12:31;;;;;;;1.75;1.10;;;9.70;99.90;;;;;;5113737;28;20173;-59
2023/04/25 08:14:57;;;;;;;3.00;1.17;;;9.50;99.90;;;;;;5113838;28;20578;-59
2023/04/25 08:17:23;;;;;;;2.30;0.88;;;9.40;99.90;;;;;;5113642;28;20177;-59
2023/04/25 08:19:49;;;;;;;2.85;0.88;;;9.50;99.90;;;;;;5113925;28;20181;-58
2023/04/25 08:22:15;;;;;;;1.25;0.68;;;9.40;99.90;;;;;;5113837;28;20212;-58
2023/04/25 08:24:41;;;;;;;2.75;0.82;;;9.10;99.90;;;;;;5113656;28;20216;-58
2023/04/25 08:27:07;;;;;;;3.70;1.10;;;8.90;99.90;;;;;;5113729;28;20264;-58
2023/04/25 08:29:33;;;;;;;2.80;1.02;;;8.80;99.90;;;;;;5113749;28;20185;-58
2023/04/25 08:31:59;;;;;;;3.25;0.90;;;8.60;99.90;;;;;;5095186;28;20551;-58
2023/04/25 08:34:25;;;;;;;1.08;0.85;;;8.50;99.90;;;;;;5113831;28;20177;-56
2023/04/25 08:36:51;;;;;;;2.67;0.90;;;8.50;99.90;;;;;;5113523;28;20177;-58
2023/04/25 08:39:17;;;;;;;2.30;1.05;;;8.50;99.90;;;;;;5113274;28;20283;-59
2023/04/25 08:41:44;;;;;;;3.35;1.13;;;8.70;99.90;;;;;;5111826;28;20173;-58
2023/04/25 08:44:11;;;;;;;3.33;0.95;;;8.60;99.90;;;;;;5111189;28;20182;-58
2023/04/25 08:46:40;;;;;;;2.70;1.00;;;8.70;99.90;;;;;;5113417;28;20231;-58
2023/04/25 08:49:08;;;;;;;1.52;0.75;;;8.80;99.90;;;;;;5113561;28;20216;-59
2023/04/25 08:51:43;;;;;;;2.05;1.00;;;8.90;99.90;;;;;;5114868;28;20173;-58
2023/04/25 08:54:12;;;;;;;3.10;1.05;;;9.10;99.90;;;;;;5117796;28;20164;-57
2023/04/25 08:56:45;;;;;;;2.90;0.88;;;9.10;99.90;;;;;;5117906;28;20181;-58
2023/04/25 08:59:12;;;;;;;5.18;1.25;;;9.20;99.90;;;;;;5117388;28;20181;-58
2023/04/25 09:01:37;;;;;;;2.20;1.02;;;9.30;99.90;;;;;;5117323;28;20200;-57
2023/04/25 09:04:03;;;;;;;0.98;0.82;;;9.50;99.90;;;;;;5117545;28;20216;-57
2023/04/25 09:06:30;;;;;;;3.50;0.88;;;9.70;99.90;;;;;;5117473;28;20184;-58
2023/04/25 09:09:03;;;;;;;2.20;0.90;;;9.90;99.90;;;;;;5117489;28;20298;-58
2023/04/25 09:11:29;;;;;;;1.17;0.77;;;10.10;99.90;;;;;;5117343;28;20230;-58
2023/04/25 09:14:10;;;;;;;1.58;1.05;;;10.30;99.90;;;;;;5117662;28;20267;-58
2023/04/25 09:16:41;;;;;;;2.00;1.10;;;10.50;99.90;;;;;;5117242;28;20173;-58
2023/04/25 09:19:06;;;;;;;1.83;1.15;;;10.90;99.90;;;;;;5117293;28;20177;-58
2023/04/25 09:21:34;;;;;;;2.13;0.80;;;10.90;99.90;;;;;;5117091;28;20280;-57
2023/04/25 09:24:00;;;;;;;2.75;0.88;;;11.00;99.90;;;;;;5117024;28;20210;-57
2023/04/25 09:26:26;;;;;;;2.00;0.88;;;10.80;99.90;;;;;;5117228;28;20268;-57
2023/04/25 09:29:06;;;;;;;2.17;0.82;;;10.60;99.90;;;;;;5117269;28;20178;-59
2023/04/25 09:31:33;;;;;;;1.02;0.77;;;10.40;99.90;;;;;;5098975;28;20173;-59
2023/04/25 09:34:02;;;;;;;2.40;0.90;;;10.30;99.90;;;;;;5116812;28;20166;-58
2023/04/25 09:36:29;;;;;;;2.95;0.75;;;10.00;99.90;;;;;;5116788;28;20173;-59
2023/04/25 09:38:55;;;;;;;2.33;0.93;;;9.80;99.90;;;;;;5116973;28;20177;-57
2023/04/25 09:41:25;;;;;;;2.42;0.93;;;9.70;99.90;;;;;;5116888;28;20584;-59
2023/04/25 09:43:51;;;;;;;2.08;0.77;;;10.00;99.90;;;;;;5116698;28;20197;-57
2023/04/25 09:46:18;;;;;;;1.52;0.90;;;10.30;99.90;;;;;;5116491;28;20213;-57
2023/04/25 09:48:51;;;;;;;1.98;0.95;;;10.50;99.90;;;;;;5116622;28;20567;-60
2023/04/25 09:51:16;;;;;;;1.73;1.02;;;10.40;99.90;;;;;;5116397;28;20263;-58
2023/04/25 09:53:50;;;;;;;2.17;0.88;;;10.30;99.90;;;;;;5116669;28;20280;-59
2023/04/25 09:56:16;;;;;;;1.95;0.90;;;9.90;99.90;;;;;;5116578;28;20207;-58
2023/04/25 09:58:42;;;;;;;1.85;0.80;;;9.70;99.90;;;;;;5116339;28;20191;-58
2023/04/25 10:01:10;;;;;;;2.88;0.85;;;9.60;99.90;;;;;;5116273;28;20173;-59
2023/04/25 10:03:39;;;;;;;4.53;1.10;;;9.40;99.90;;;;;;5114979;28;20204;-59
2023/04/25 10:06:11;;;;;;;1.38;0.77;;;9.10;99.90;;;;;;5116155;28;20651;-59
2023/04/25 10:08:38;;;;;;;2.22;1.13;;;9.10;99.90;;;;;;5116467;28;20176;-58
2023/04/25 10:11:05;;;;;;;4.15;1.17;;;9.00;99.90;;;;;;5116219;28;20173;-59
2023/04/25 10:13:32;;;;;;;2.00;1.00;;;9.10;99.90;;;;;;5116223;28;20336;-59
2023/04/25 10:16:00;;;;;;;2.90;1.00;;;9.10;99.90;;;;;;5115914;28;20627;-59
2023/04/25 10:18:27;;;;;;;2.17;1.05;;;9.00;99.90;;;;;;5115940;28;20613;-59
2023/04/25 10:20:55;;;;;;;2.25;1.13;;;9.00;99.90;;;;;;5116105;28;20165;-59
2023/04/25 10:23:21;;;;;;;2.15;0.77;;;9.00;99.90;;;;;;5115966;28;20226;-57
2023/04/25 10:25:47;;;;;;;1.77;1.20;;;9.10;99.90;;;;;;5115931;28;20226;-59
2023/04/25 10:28:13;;;;;;;2.08;0.90;;;9.20;99.90;;;;;;5115899;28;20551;-59
2023/04/25 10:31:04;;;;;;;1.67;0.90;;;9.20;99.90;;;;;;5115723;28;20223;-59
2023/04/25 10:33:41;;;;;;;1.70;1.08;;;9.10;99.90;;;;;;5097752;28;20173;-58
2023/04/25 10:36:17;;;;;;;1.77;0.90;;;9.40;99.90;;;;;;5115803;28;20181;-58
2023/04/25 10:38:45;;;;;;;1.25;1.00;;;9.70;99.90;;;;;;5115669;28;20558;-60
2023/04/25 10:41:11;;;;;;;4.90;1.27;;;9.90;99.90;;;;;;5115479;28;20169;-58
2023/04/25 10:43:42;;;;;;;2.40;1.00;;;10.20;99.90;;;;;;5115673;28;20208;-57
2023/04/25 10:46:24;;;;;;;1.48;0.60;;;10.20;99.90;;;;;;5115336;28;20189;-57
2023/04/25 10:48:51;;;;;;;1.10;0.70;;;10.40;99.90;;;;;;5115243;28;20228;-59
2023/04/25 10:51:21;;;;;;;0.93;0.80;;;10.40;99.90;;;;;;5115375;28;20173;-59
2023/04/25 10:53:59;;;;;;;1.52;0.90;;;10.20;99.90;;;;;;5115126;28;20535;-59
2023/04/25 10:56:43;;;;;;;1.95;0.70;;;10.50;99.90;;;;;;5115414;28;20176;-57
2023/04/25 10:59:15;;;;;;;2.58;0.90;;;10.80;99.90;;;;;;5115164;28;20169;-60
2023/04/25 11:01:41;;;;;;;0.60;0.60;;;11.00;99.90;;;;;;5114946;28;20254;-58
2023/04/25 11:04:23;;;;;;;1.52;0.77;;;11.40;99.90;;;;;;5114998;28;20173;-58
2023/04/25 11:06:57;;;;;;;1.08;0.60;;;11.70;99.90;;;;;;5115389;28;20165;-58
2023/04/25 11:09:24;;;;;;;1.00;0.47;;;12.20;99.90;;;;;;5115050;28;20172;-58
2023/04/25 11:11:58;;;;;;;0.35;0.35;;;12.10;99.90;;;;;;5115285;28;20199;-58
2023/04/25 11:14:24;;;;;;;0.50;0.50;;;11.40;97.10;;;;;;5114193;28;20196;-58
2023/04/25 11:16:55;;;;;;;2.90;0.70;;;10.70;97.20;;;;;;5114522;28;20184;-58
2023/04/25 11:19:21;;;;;;;2.45;0.73;;;10.60;99.80;;;;;;5114914;28;20173;-58
2023/04/25 11:21:47;;;;;;;1.73;0.73;;;10.90;99.90;;;;;;5114828;28;20515;-58
2023/04/25 11:24:13;;;;;;;0.63;0.63;;;11.40;99.90;;;;;;5114787;28;20177;-59
2023/04/25 11:26:41;;;;;;;1.42;0.65;;;11.90;99.90;;;;;;5114678;28;20177;-58
2023/04/25 11:29:07;;;;;;;2.33;0.88;;;12.10;98.40;;;;;;5114720;28;20212;-58
2023/04/25 11:31:32;;;;;;;0.85;0.60;;;11.70;97.80;;;;;;5096457;28;20204;-58
2023/04/25 11:33:58;;;;;;;0.57;0.50;;;11.80;99.90;;;;;;5114711;28;20260;-58
2023/04/25 11:36:25;;;;;;;0.60;0.60;;;12.00;98.40;;;;;;5114629;28;20208;-58
2023/04/25 11:38:52;;;;;;;1.05;0.63;;;12.30;99.30;;;;;;5114550;28;20200;-58
2023/04/25 11:41:22;;;;;;;0.50;0.50;;;12.00;96.70;;;;;;5114471;28;20173;-58
2023/04/25 11:43:48;;;;;;;2.50;0.60;;;11.50;96.60;;;;;;5114248;28;20675;-58
2023/04/25 11:46:15;;;;;;;1.90;0.68;;;11.10;99.90;;;;;;5114279;28;20207;-58
2023/04/25 11:48:41;;;;;;;0.63;0.60;;;10.70;99.90;;;;;;5114296;28;20225;-58
2023/04/25 11:51:08;;;;;;;2.50;0.80;;;10.50;99.90;;;;;;5114310;28;20169;-58
2023/04/25 11:53:33;;;;;;;0.85;0.65;;;10.60;99.90;;;;;;5114191;28;20271;-58
2023/04/25 11:56:00;;;;;;;2.92;0.80;;;10.50;99.90;;;;;;5114096;28;20222;-58
2023/04/25 11:58:26;;;;;;;0.75;0.70;;;10.40;99.90;;;;;;5113757;28;20189;-58
2023/04/25 12:00:52;;;;;;;2.25;0.80;;;10.50;99.90;;;;;;5114267;28;20165;-58
2023/04/25 12:03:18;;;;;;;1.60;0.82;;;10.70;99.90;;;;;;5113877;28;20227;-58
2023/04/25 12:05:45;;;;;;;1.15;0.50;;;10.80;99.90;;;;;;5114025;28;20185;-58
2023/04/25 12:08:15;;;;;;;0.68;0.52;;;10.90;99.90;;;;;;5114093;28;20226;-58
2023/04/25 12:10:42;;;;;;;2.28;0.60;;;11.00;99.90;;;;;;5113930;28;20173;-58
2023/04/25 12:13:25;;;;;;;0.63;0.63;;;11.00;99.90;;;;;;5113746;28;20272;-58
2023/04/25 12:15:53;;;;;;;1.95;0.68;;;10.90;99.90;;;;;;5113857;28;20169;-58
2023/04/25 12:18:21;;;;;;;2.03;1.08;;;10.70;99.10;;;;;;5113911;28;20165;-58
2023/04/25 12:20:47;;;;;;;0.55;0.45;;;10.70;99.40;;;;;;5113867;28;20531;-58
2023/04/25 12:23:12;;;;;;;0.98;0.70;;;10.90;99.40;;;;;;5113996;28;20197;-58
2023/04/25 12:25:43;;;;;;;1.60;0.77;;;11.20;99.20;;;;;;5113382;28;20186;-58
2023/04/25 12:28:16;;;;;;;1.67;0.70;;;11.50;99.90;;;;;;5113844;28;20335;-58
2023/04/25 12:30:53;;;;;;;0.50;0.50;;;11.70;99.60;;;;;;5113867;28;20169;-58
2023/04/25 12:33:19;;;;;;;0.93;0.60;;;12.00;99.30;;;;;;5113712;28;20173;-58
2023/04/25 12:35:45;;;;;;;2.75;0.68;;;12.10;99.40;;;;;;5113585;28;20171;-58
2023/04/25 12:38:11;;;;;;;1.90;0.65;;;11.90;99.90;;;;;;5113683;28;20181;-58
2023/04/25 12:40:36;;;;;;;1.75;0.85;;;11.50;99.90;;;;;;5113575;28;20169;-58
2023/04/25 12:43:02;;;;;;;0.95;0.60;;;10.90;99.90;;;;;;5113552;28;20207;-58
2023/04/25 12:45:28;;;;;;;1.10;0.50;;;10.50;99.90;;;;;;5113762;28;20260;-58
2023/04/25 12:47:53;;;;;;;0.57;0.50;;;10.40;99.90;;;;;;5113378;28;20182;-58
2023/04/25 12:50:19;;;;;;;2.33;0.73;;;10.30;99.90;;;;;;5113544;28;20558;-58
2023/04/25 12:52:45;;;;;;;1.05;0.70;;;10.10;99.90;;;;;;5113343;28;20264;-58